Back to Top

Language: 

My Weather Underground Personal Weather Station Historical Data with Graphs...

Delerius Weather Station Historical Data
Daily Summary for June 6, 2017 Units:  Metric    English   Both
« Previous Day
Next Day »
Daily Weekly Monthly Yearly Custom
  High: Low: Average:
Temperature: 12.6 °C 10.7 °C 11.8 °C
Dew Point: 12.1 °C 8.3 °C 10.2 °C
Humidity: 97 % 76 % 90 %
Wind Speed: 70.8 km/h 6.4 km/h 24.3 km/h
Wind Gust: 70.8 km/h - -
Wind:- - WSW
Pressure: 996.2 hPa 985 hPa -
Precipitation: 5.08 mm    
Historical Graphs
 
 
Tabular Data for June 6, 2017
Time Temperature Dew Point Pressure Wind Wind Speed Wind Gust Humidity Rainfall Rate (Hourly) solar Conditions
00:01 12.4 °C 11.6 °C 990.7 hPa SSE 14.5 km/h 22.5 km/h 95 % 0.25 mm 0 W/m2
00:06 12.4 °C 11.6 °C 990.4 hPa SE 12.9 km/h 22.5 km/h 95 % 0.25 mm 0 W/m2
00:11 12.3 °C 11.5 °C 990.4 hPa SE 12.9 km/h 22.5 km/h 95 % 0 mm 0 W/m2
00:16 12.3 °C 11.5 °C 990.4 hPa SE 14.5 km/h 25.7 km/h 95 % 0 mm 0 W/m2
00:18 12.4 °C 11.6 °C 990.4 hPa SE 14.5 km/h 25.7 km/h 95 % 0 mm 0 W/m2
00:23 12.3 °C 11.5 °C 990.1 hPa SE 14.5 km/h 20.9 km/h 95 % 0 mm 0 W/m2
00:28 12.3 °C 11.5 °C 990.1 hPa SE 14.5 km/h 25.7 km/h 95 % 0 mm 0 W/m2
00:33 12.3 °C 11.5 °C 990.1 hPa SE 14.5 km/h 25.7 km/h 95 % 0 mm 0 W/m2
00:39 12.3 °C 11.5 °C 989.7 hPa SE 11.3 km/h 19.3 km/h 95 % 0 mm 0 W/m2
00:44 12.3 °C 11.5 °C 989.7 hPa SE 12.9 km/h 25.7 km/h 95 % 0 mm 0 W/m2
00:49 12.3 °C 11.5 °C 989.7 hPa SSE 12.9 km/h 25.7 km/h 95 % 0 mm 0 W/m2
00:54 12.3 °C 11.5 °C 989.4 hPa SE 14.5 km/h 29 km/h 95 % 0.25 mm 0 W/m2
00:59 12.3 °C 11.5 °C 989.4 hPa SE 14.5 km/h 29 km/h 95 % 0.25 mm 0 W/m2
01:04 12.3 °C 11.5 °C 989.4 hPa SE 14.5 km/h 24.1 km/h 95 % 0.25 mm 0 W/m2
01:09 12.3 °C 11.5 °C 989.4 hPa SE 16.1 km/h 29 km/h 95 % 0.25 mm 0 W/m2
01:14 12.3 °C 11.5 °C 989.1 hPa SE 14.5 km/h 29 km/h 95 % 0.25 mm 0 W/m2
01:19 12.3 °C 11.5 °C 989.1 hPa SSE 14.5 km/h 25.7 km/h 95 % 0.25 mm 0 W/m2
01:24 12.3 °C 11.5 °C 988.7 hPa SE 12.9 km/h 25.7 km/h 95 % 0.25 mm 0 W/m2
01:29 12.3 °C 11.7 °C 988.7 hPa SE 12.9 km/h 22.5 km/h 96 % 0.25 mm 0 W/m2
01:34 12.3 °C 11.7 °C 988.7 hPa SE 14.5 km/h 24.1 km/h 96 % 0.25 mm 0 W/m2
01:39 12.3 °C 11.7 °C 988.7 hPa SE 12.9 km/h 24.1 km/h 96 % 0.51 mm 0 W/m2
01:44 12.2 °C 11.6 °C 988.4 hPa SE 12.9 km/h 22.5 km/h 96 % 0.51 mm 0 W/m2
01:49 12.2 °C 11.6 °C 988.4 hPa SE 14.5 km/h 25.7 km/h 96 % 0.51 mm 0 W/m2
01:54 12.2 °C 11.6 °C 988.4 hPa SE 14.5 km/h 25.7 km/h 96 % 0.25 mm 0 W/m2
01:59 12.2 °C 11.6 °C 988 hPa SE 16.1 km/h 25.7 km/h 96 % 0.25 mm 0 W/m2
02:04 12.2 °C 11.6 °C 988 hPa SE 14.5 km/h 25.7 km/h 96 % 0.25 mm 0 W/m2
02:09 12.2 °C 11.6 °C 988 hPa SE 14.5 km/h 25.7 km/h 96 % 0.25 mm 0 W/m2
02:14 12.2 °C 11.6 °C 988 hPa SE 16.1 km/h 30.6 km/h 96 % 0.25 mm 0 W/m2
02:19 12.2 °C 11.6 °C 987.7 hPa SE 16.1 km/h 30.6 km/h 96 % 0.51 mm 0 W/m2
02:24 12.2 °C 11.6 °C 987.7 hPa SE 14.5 km/h 29 km/h 96 % 0.51 mm 0 W/m2
02:29 12.2 °C 11.6 °C 987.7 hPa SE 12.9 km/h 22.5 km/h 96 % 0.51 mm 0 W/m2
02:34 12.2 °C 11.6 °C 987.4 hPa SE 12.9 km/h 24.1 km/h 96 % 0.51 mm 0 W/m2
02:39 12.2 °C 11.6 °C 987.4 hPa SE 14.5 km/h 25.7 km/h 96 % 0.51 mm 0 W/m2
02:44 12.2 °C 11.6 °C 987.4 hPa SE 14.5 km/h 25.7 km/h 96 % 0.51 mm 0 W/m2
02:49 12.2 °C 11.6 °C 987 hPa SE 14.5 km/h 24.1 km/h 96 % 0.51 mm 0 W/m2
02:54 12.2 °C 11.6 °C 987 hPa SE 14.5 km/h 24.1 km/h 96 % 0.51 mm 0 W/m2
02:59 12.2 °C 11.6 °C 987 hPa SE 14.5 km/h 24.1 km/h 96 % 0.51 mm 0 W/m2
03:04 12.2 °C 11.6 °C 987 hPa SE 14.5 km/h 24.1 km/h 96 % 0.51 mm 0 W/m2
03:10 12.2 °C 11.6 °C 987 hPa SE 14.5 km/h 24.1 km/h 96 % 0.51 mm 0 W/m2
03:15 12.2 °C 11.6 °C 986.7 hPa SE 12.9 km/h 22.5 km/h 96 % 0.51 mm 0 W/m2
03:20 12.3 °C 11.7 °C 986.7 hPa SSE 12.9 km/h 20.9 km/h 96 % 0.51 mm 0 W/m2
03:25 12.3 °C 11.7 °C 986.7 hPa SE 12.9 km/h 22.5 km/h 96 % 0.51 mm 0 W/m2
03:30 12.3 °C 11.7 °C 986.3 hPa SE 12.9 km/h 22.5 km/h 96 % 0.25 mm 0 W/m2
03:35 12.3 °C 11.7 °C 986.3 hPa SE 11.3 km/h 20.9 km/h 96 % 0.25 mm 0 W/m2
03:40 12.3 °C 11.7 °C 986.3 hPa SE 12.9 km/h 22.5 km/h 96 % 0.25 mm 0 W/m2
03:45 12.3 °C 11.8 °C 986.3 hPa SE 14.5 km/h 22.5 km/h 97 % 0.25 mm 0 W/m2
03:50 12.3 °C 11.8 °C 986.3 hPa SE 14.5 km/h 22.5 km/h 97 % 0.51 mm 0 W/m2
03:55 12.3 °C 11.8 °C 986.3 hPa SE 12.9 km/h 22.5 km/h 97 % 0.25 mm 0 W/m2
04:00 12.2 °C 11.7 °C 986 hPa SE 11.3 km/h 17.7 km/h 97 % 0.25 mm 0 W/m2
04:05 12.2 °C 11.7 °C 986 hPa SE 12.9 km/h 19.3 km/h 97 % 0.25 mm 0 W/m2
04:10 12.2 °C 11.7 °C 986 hPa SE 12.9 km/h 19.3 km/h 97 % 0.25 mm 0 W/m2
04:15 12.2 °C 11.7 °C 985.7 hPa SE 14.5 km/h 24.1 km/h 97 % 0.25 mm 0 W/m2
04:20 12.2 °C 11.7 °C 985.7 hPa SE 12.9 km/h 24.1 km/h 97 % 0.25 mm 0 W/m2
04:25 12.2 °C 11.7 °C 985.7 hPa SE 12.9 km/h 19.3 km/h 97 % 0.25 mm 0 W/m2
04:30 12.3 °C 11.8 °C 985.7 hPa SE 11.3 km/h 19.3 km/h 97 % 0.25 mm 0 W/m2
04:35 12.3 °C 11.8 °C 985.7 hPa SE 9.7 km/h 16.1 km/h 97 % 0.25 mm 0 W/m2
04:40 12.3 °C 11.8 °C 985.7 hPa SE 11.3 km/h 19.3 km/h 97 % 0.25 mm 0 W/m2
04:45 12.3 °C 11.8 °C 985.7 hPa SE 11.3 km/h 19.3 km/h 97 % 0.25 mm 0 W/m2
04:50 12.3 °C 11.8 °C 985.7 hPa SE 9.7 km/h 19.3 km/h 97 % 0 mm 0 W/m2
04:55 12.3 °C 11.8 °C 985.7 hPa SE 11.3 km/h 17.7 km/h 97 % 0.25 mm 0 W/m2
05:00 12.3 °C 11.8 °C 985.7 hPa SE 11.3 km/h 17.7 km/h 97 % 0.25 mm 0 W/m2
05:05 12.3 °C 11.8 °C 985.3 hPa SE 9.7 km/h 16.1 km/h 97 % 0.25 mm 5 W/m2
05:11 12.3 °C 11.8 °C 985.3 hPa SE 9.7 km/h 16.1 km/h 97 % 0.25 mm 5 W/m2
05:16 12.3 °C 11.8 °C 985.3 hPa SE 9.7 km/h 16.1 km/h 97 % 0.25 mm 5 W/m2
05:20 12.3 °C 11.8 °C 985.3 hPa SSE 8 km/h 12.9 km/h 97 % 0.25 mm 9 W/m2
05:26 12.3 °C 11.8 °C 985 hPa SSE 9.7 km/h 17.7 km/h 97 % 0.25 mm 14 W/m2
05:31 12.4 °C 11.9 °C 985 hPa SSE 8 km/h 17.7 km/h 97 % 0.25 mm 28 W/m2
05:36 12.4 °C 11.9 °C 985 hPa SSE 6.4 km/h 12.9 km/h 97 % 0.25 mm 23 W/m2
05:41 12.4 °C 11.9 °C 985 hPa SE 8 km/h 16.1 km/h 97 % 0.25 mm 21 W/m2
05:46 12.4 °C 11.9 °C 985 hPa SE 8 km/h 16.1 km/h 97 % 0.25 mm 23 W/m2
05:51 12.5 °C 12.1 °C 985 hPa SE 8 km/h 14.5 km/h 97 % 0.25 mm 23 W/m2
05:56 12.5 °C 12.1 °C 985 hPa SE 8 km/h 12.9 km/h 97 % 0 mm 21 W/m2
06:01 12.5 °C 12.1 °C 985 hPa SE 8 km/h 12.9 km/h 97 % 0 mm 25 W/m2
06:06 12.6 °C 12.1 °C 985 hPa SSE 6.4 km/h 12.9 km/h 97 % 0 mm 21 W/m2
06:11 12.6 °C 12.1 °C 985 hPa SE 8 km/h 12.9 km/h 97 % 0.25 mm 21 W/m2
06:16 12.6 °C 12.1 °C 985 hPa SSE 8 km/h 12.9 km/h 97 % 0.25 mm 23 W/m2
06:21 12.6 °C 12.1 °C 985 hPa SSE 9.7 km/h 14.5 km/h 97 % 0.25 mm 23 W/m2
06:26 12.6 °C 12.1 °C 985 hPa SE 9.7 km/h 16.1 km/h 97 % 0.51 mm 18 W/m2
06:31 12.6 °C 12.1 °C 985 hPa SE 9.7 km/h 19.3 km/h 97 % 0.51 mm 11 W/m2
06:36 12.6 °C 12.1 °C 985 hPa South 12.9 km/h 25.7 km/h 97 % 0.76 mm 25 W/m2
06:41 12.3 °C 11.8 °C 985.3 hPa WSW 16.1 km/h 32.2 km/h 97 % 0.76 mm 35 W/m2
06:46 12.1 °C 11.6 °C 985.3 hPa West 16.1 km/h 32.2 km/h 97 % 0.76 mm 40 W/m2
06:51 12 °C 11.4 °C 985.3 hPa West 14.5 km/h 30.6 km/h 96 % 0.76 mm 42 W/m2
06:56 11.8 °C 11.2 °C 985.3 hPa West 16.1 km/h 37 km/h 96 % 0.76 mm 54 W/m2
07:01 11.6 °C 11 °C 985.3 hPa WNW 19.3 km/h 37 km/h 96 % 0.76 mm 72 W/m2
07:06 11.6 °C 11 °C 985.3 hPa WNW 20.9 km/h 37 km/h 96 % 0.76 mm 84 W/m2
07:11 11.4 °C 10.8 °C 985.3 hPa WNW 19.3 km/h 37 km/h 96 % 0.51 mm 79 W/m2
07:16 11.4 °C 10.8 °C 985.7 hPa WNW 19.3 km/h 35.4 km/h 96 % 0.51 mm 76 W/m2
07:21 11.3 °C 10.7 °C 985.7 hPa WNW 19.3 km/h 33.8 km/h 96 % 0.51 mm 40 W/m2
07:26 11.2 °C 10.4 °C 985.7 hPa WNW 17.7 km/h 30.6 km/h 95 % 0.51 mm 56 W/m2
07:31 10.9 °C 10.1 °C 985.7 hPa WNW 20.9 km/h 35.4 km/h 95 % 0.25 mm 74 W/m2
07:36 10.9 °C 10.1 °C 985.7 hPa WNW 20.9 km/h 37 km/h 95 % 0 mm 84 W/m2
07:41 10.8 °C 9.9 °C 985.7 hPa WNW 20.9 km/h 37 km/h 94 % 0 mm 95 W/m2
07:46 10.8 °C 9.9 °C 985.7 hPa WNW 19.3 km/h 33.8 km/h 94 % 0.25 mm 98 W/m2
07:51 10.8 °C 9.9 °C 985.7 hPa WNW 19.3 km/h 40.2 km/h 94 % 0.25 mm 104 W/m2
07:56 10.8 °C 9.9 °C 985.7 hPa WNW 20.9 km/h 40.2 km/h 94 % 0.25 mm 105 W/m2
08:01 10.8 °C 9.9 °C 985.7 hPa WNW 19.3 km/h 33.8 km/h 94 % 0.25 mm 98 W/m2
08:06 10.8 °C 9.7 °C 986 hPa WNW 19.3 km/h 37 km/h 93 % 0.25 mm 76 W/m2
08:11 10.7 °C 9.6 °C 986 hPa WNW 19.3 km/h 46.7 km/h 93 % 0.25 mm 84 W/m2
08:14 10.7 °C 9.6 °C 986 hPa WNW 20.9 km/h 46.7 km/h 93 % 0.25 mm 74 W/m2
08:19 10.7 °C 9.6 °C 986 hPa WNW 19.3 km/h 35.4 km/h 93 % 0.25 mm 67 W/m2
08:24 10.8 °C 9.7 °C 986 hPa WNW 19.3 km/h 33.8 km/h 93 % 0.25 mm 93 W/m2
08:29 10.8 °C 9.9 °C 986 hPa WNW 22.5 km/h 40.2 km/h 94 % 0.51 mm 111 W/m2
08:34 10.8 °C 9.9 °C 986 hPa WNW 20.9 km/h 40.2 km/h 94 % 0.51 mm 134 W/m2
08:39 10.9 °C 9.9 °C 986 hPa WNW 19.3 km/h 35.4 km/h 94 % 0.51 mm 146 W/m2
08:44 10.9 °C 9.9 °C 986 hPa WNW 22.5 km/h 35.4 km/h 94 % 0.25 mm 162 W/m2
08:49 11.1 °C 10.2 °C 986 hPa WNW 22.5 km/h 37 km/h 94 % 0.25 mm 181 W/m2
08:54 11.1 °C 10.2 °C 986 hPa WNW 20.9 km/h 37 km/h 94 % 0.25 mm 169 W/m2
08:59 11.1 °C 10.2 °C 986 hPa WNW 24.1 km/h 41.8 km/h 94 % 0.51 mm 156 W/m2
09:04 11.1 °C 10 °C 986 hPa WNW 27.4 km/h 48.3 km/h 93 % 0.51 mm 167 W/m2
09:09 11.1 °C 10 °C 986 hPa WNW 27.4 km/h 48.3 km/h 93 % 0.51 mm 185 W/m2
09:14 11.1 °C 10.2 °C 986 hPa WNW 27.4 km/h 46.7 km/h 94 % 0.51 mm 202 W/m2
09:19 11.2 °C 10.3 °C 986 hPa WNW 24.1 km/h 43.5 km/h 94 % 0.51 mm 204 W/m2
09:24 11.2 °C 10.3 °C 986 hPa WNW 27.4 km/h 45.1 km/h 94 % 0.51 mm 216 W/m2
09:29 11.3 °C 10.4 °C 986 hPa WNW 27.4 km/h 45.1 km/h 94 % 0.51 mm 223 W/m2
09:35 11.3 °C 10.4 °C 986 hPa WNW 25.7 km/h 45.1 km/h 94 % 0.51 mm 241 W/m2
09:39 11.3 °C 10.4 °C 986 hPa WNW 27.4 km/h 45.1 km/h 94 % 0.51 mm 223 W/m2
09:45 11.3 °C 10.4 °C 986 hPa WNW 27.4 km/h 48.3 km/h 94 % 0.51 mm 220 W/m2
09:50 11.3 °C 10.4 °C 986 hPa WNW 27.4 km/h 48.3 km/h 94 % 0.51 mm 211 W/m2
09:55 11.3 °C 10.2 °C 986.3 hPa WNW 27.4 km/h 49.9 km/h 93 % 0.51 mm 181 W/m2
10:00 11.3 °C 10.2 °C 986.3 hPa WNW 27.4 km/h 49.9 km/h 93 % 0.51 mm 162 W/m2
10:05 11.3 °C 10.2 °C 986.3 hPa WNW 25.7 km/h 40.2 km/h 93 % 0.51 mm 132 W/m2
10:10 11.2 °C 10.1 °C 986.3 hPa WNW 25.7 km/h 54.7 km/h 93 % 0.51 mm 167 W/m2
10:15 11.2 °C 10.1 °C 986.3 hPa WNW 30.6 km/h 54.7 km/h 93 % 0.51 mm 178 W/m2
10:20 11.1 °C 9.8 °C 986.7 hPa WNW 32.2 km/h 54.7 km/h 92 % 0.25 mm 156 W/m2
10:25 11.1 °C 9.8 °C 986.7 hPa WNW 29 km/h 54.7 km/h 92 % 0.25 mm 183 W/m2
10:30 11.1 °C 9.8 °C 986.7 hPa WNW 27.4 km/h 45.1 km/h 92 % 0.25 mm 204 W/m2
10:35 11.2 °C 9.9 °C 986.7 hPa WNW 27.4 km/h 46.7 km/h 92 % 0 mm 244 W/m2
10:40 11.3 °C 10.1 °C 986.7 hPa WNW 27.4 km/h 49.9 km/h 92 % 0 mm 257 W/m2
10:45 11.3 °C 10.1 °C 986.7 hPa WNW 27.4 km/h 49.9 km/h 92 % 0 mm 244 W/m2
10:50 11.4 °C 10 °C 986.7 hPa WNW 25.7 km/h 49.9 km/h 91 % 0 mm 227 W/m2
10:55 11.4 °C 10 °C 987 hPa WNW 25.7 km/h 43.5 km/h 91 % 0.25 mm 216 W/m2
11:00 11.4 °C 10 °C 987 hPa WNW 29 km/h 48.3 km/h 91 % 0.25 mm 204 W/m2
11:05 11.4 °C 10 °C 987 hPa WNW 30.6 km/h 48.3 km/h 91 % 0.25 mm 244 W/m2
11:06 11.4 °C 10 °C 987 hPa WNW 30.6 km/h 48.3 km/h 91 % 0.25 mm 267 W/m2
11:11 11.5 °C 10.2 °C 987 hPa WNW 27.4 km/h 43.5 km/h 92 % 0.25 mm 315 W/m2
11:16 11.6 °C 10.3 °C 987.4 hPa WNW 24.1 km/h 46.7 km/h 92 % 0.25 mm 318 W/m2
11:21 11.7 °C 10.4 °C 987.4 hPa WNW 22.5 km/h 46.7 km/h 92 % 0.25 mm 287 W/m2
11:26 11.7 °C 10.6 °C 987 hPa WNW 24.1 km/h 46.7 km/h 93 % 0.25 mm 216 W/m2
11:31 11.6 °C 10.3 °C 987.4 hPa WNW 29 km/h 51.5 km/h 92 % 0.25 mm 165 W/m2
11:36 11.6 °C 10.3 °C 987.4 hPa WNW 29 km/h 51.5 km/h 92 % 0.25 mm 169 W/m2
11:41 11.5 °C 10.2 °C 987.4 hPa WNW 25.7 km/h 45.1 km/h 92 % 0.25 mm 216 W/m2
11:46 11.5 °C 10.2 °C 987.4 hPa WNW 25.7 km/h 41.8 km/h 92 % 0.25 mm 160 W/m2
11:51 11.5 °C 10.2 °C 987.7 hPa WNW 29 km/h 64.4 km/h 92 % 0.51 mm 197 W/m2
11:56 11.5 °C 10.2 °C 987.7 hPa WNW 29 km/h 64.4 km/h 92 % 0.25 mm 229 W/m2
12:01 11.5 °C 10.2 °C 987.7 hPa WNW 25.7 km/h 46.7 km/h 92 % 0.25 mm 236 W/m2
12:06 11.5 °C 10.2 °C 987.7 hPa WNW 29 km/h 51.5 km/h 92 % 0.25 mm 232 W/m2
12:11 11.5 °C 10.2 °C 987.7 hPa WNW 32.2 km/h 51.5 km/h 92 % 0.25 mm 207 W/m2
12:16 11.6 °C 10.3 °C 987.7 hPa WNW 29 km/h 49.9 km/h 92 % 0.25 mm 230 W/m2
12:22 11.5 °C 10.2 °C 987.7 hPa WNW 27.4 km/h 46.7 km/h 92 % 0.51 mm 241 W/m2
12:27 11.6 °C 10.3 °C 987.7 hPa WNW 30.6 km/h 54.7 km/h 92 % 0.51 mm 274 W/m2
12:32 11.6 °C 10.3 °C 988 hPa WNW 29 km/h 54.7 km/h 92 % 0.51 mm 220 W/m2
12:37 11.6 °C 10.3 °C 988 hPa WNW 27.4 km/h 46.7 km/h 92 % 0.51 mm 218 W/m2
12:42 11.6 °C 10.3 °C 988 hPa WNW 27.4 km/h 49.9 km/h 92 % 0.51 mm 199 W/m2
12:47 11.5 °C 10.2 °C 988 hPa WNW 27.4 km/h 49.9 km/h 92 % 0.51 mm 206 W/m2
12:52 11.5 °C 10.2 °C 988 hPa WNW 27.4 km/h 48.3 km/h 92 % 0.25 mm 206 W/m2
12:57 11.5 °C 10.2 °C 988 hPa WNW 29 km/h 48.3 km/h 92 % 0.51 mm 197 W/m2
13:02 11.5 °C 10.2 °C 988 hPa WNW 29 km/h 46.7 km/h 92 % 0.51 mm 190 W/m2
13:07 11.4 °C 10.2 °C 988.4 hPa WNW 29 km/h 57.9 km/h 92 % 0.51 mm 190 W/m2
13:12 11.4 °C 10.2 °C 988.4 hPa WNW 30.6 km/h 59.5 km/h 92 % 0.51 mm 186 W/m2
13:17 11.3 °C 10.1 °C 988.4 hPa WNW 32.2 km/h 59.5 km/h 92 % 0.51 mm 186 W/m2
13:22 11.3 °C 10.1 °C 988.4 hPa WNW 32.2 km/h 67.6 km/h 92 % 0.51 mm 192 W/m2
13:27 11.2 °C 9.9 °C 988.4 hPa WNW 30.6 km/h 67.6 km/h 92 % 0.51 mm 193 W/m2
13:32 11.2 °C 9.9 °C 988.4 hPa WNW 29 km/h 53.1 km/h 92 % 0.51 mm 195 W/m2
13:37 11.2 °C 9.9 °C 988.7 hPa WNW 30.6 km/h 54.7 km/h 92 % 0.51 mm 206 W/m2
13:42 11.2 °C 9.8 °C 988.7 hPa WNW 30.6 km/h 56.3 km/h 91 % 0.51 mm 213 W/m2
13:47 11.2 °C 9.9 °C 988.7 hPa WNW 29 km/h 56.3 km/h 92 % 0.51 mm 214 W/m2
13:52 11.2 °C 9.9 °C 988.7 hPa WNW 32.2 km/h 59.5 km/h 92 % 0.76 mm 218 W/m2
13:57 11.2 °C 9.9 °C 988.7 hPa WNW 33.8 km/h 59.5 km/h 92 % 0.51 mm 221 W/m2
14:03 11.2 °C 9.9 °C 988.7 hPa WNW 32.2 km/h 57.9 km/h 92 % 0.76 mm 200 W/m2
14:08 11.2 °C 9.9 °C 989.1 hPa WNW 35.4 km/h 57.9 km/h 92 % 0.76 mm 220 W/m2
14:13 11.2 °C 9.8 °C 989.1 hPa WNW 35.4 km/h 56.3 km/h 91 % 0.76 mm 225 W/m2
14:18 11.2 °C 9.8 °C 989.1 hPa WNW 35.4 km/h 57.9 km/h 91 % 0.51 mm 229 W/m2
14:23 11.1 °C 9.7 °C 989.4 hPa WNW 35.4 km/h 64.4 km/h 91 % 0.76 mm 227 W/m2
14:28 11.1 °C 9.5 °C 989.4 hPa WNW 38.6 km/h 69.2 km/h 90 % 0.76 mm 214 W/m2
14:33 11.1 °C 9.5 °C 989.7 hPa WNW 37 km/h 69.2 km/h 90 % 0.76 mm 183 W/m2
14:38 11.1 °C 9.5 °C 989.7 hPa WNW 37 km/h 66 km/h 90 % 0.51 mm 195 W/m2
14:43 11.1 °C 9.3 °C 989.7 hPa WNW 38.6 km/h 66 km/h 89 % 0.51 mm 195 W/m2
14:48 11.1 °C 9.3 °C 989.7 hPa WNW 37 km/h 61.2 km/h 89 % 0.51 mm 192 W/m2
14:53 11.1 °C 9.3 °C 989.7 hPa WNW 33.8 km/h 59.5 km/h 89 % 0.51 mm 199 W/m2
14:58 11.2 °C 9.4 °C 990.1 hPa WNW 32.2 km/h 59.5 km/h 89 % 0.51 mm 204 W/m2
15:03 11.2 °C 9.4 °C 990.1 hPa WNW 33.8 km/h 62.8 km/h 89 % 0.51 mm 216 W/m2
15:08 11.2 °C 9.4 °C 990.4 hPa WNW 33.8 km/h 62.8 km/h 89 % 0.51 mm 214 W/m2
15:13 11.3 °C 9.6 °C 990.4 hPa WNW 33.8 km/h 56.3 km/h 89 % 0.51 mm 195 W/m2
15:18 11.3 °C 9.6 °C 990.4 hPa WNW 33.8 km/h 66 km/h 89 % 0.51 mm 206 W/m2
15:45 11.4 °C 9.5 °C 990.7 hPa WNW 57.9 km/h 57.9 km/h 88 % 0.25 mm 276 W/m2
16:00 11.8 °C 9.7 °C 991.1 hPa WNW 70.8 km/h 70.8 km/h 87 % 0 mm 263 W/m2
16:15 11.8 °C 9.6 °C 991.1 hPa WNW 61.2 km/h 61.2 km/h 86 % 0 mm 248 W/m2
16:30 11.9 °C 9.5 °C 991.1 hPa WNW 62.8 km/h 62.8 km/h 85 % 0 mm 260 W/m2
16:45 12.1 °C 9.4 °C 991.4 hPa WNW 61.2 km/h 61.2 km/h 84 % 0 mm 222 W/m2
17:00 12.1 °C 9.3 °C 991.8 hPa WNW 57.9 km/h 57.9 km/h 83 % 0 mm 183 W/m2
17:15 12.1 °C 8.9 °C 992.1 hPa WNW 66 km/h 66 km/h 81 % 0 mm 167 W/m2
17:32 12.3 °C 8.8 °C 992.1 hPa WNW 37 km/h 37 km/h 79 % 0 mm 160 W/m2
17:37 12.4 °C 8.7 °C 992.1 hPa WNW 35.4 km/h 61.2 km/h 78 % 0 mm 151 W/m2
17:42 12.4 °C 8.7 °C 992.1 hPa WNW 35.4 km/h 61.2 km/h 78 % 0 mm 142 W/m2
17:47 12.4 °C 8.7 °C 992.4 hPa WNW 33.8 km/h 57.9 km/h 78 % 0 mm 137 W/m2
17:52 12.5 °C 8.8 °C 992.1 hPa WNW 37 km/h 57.9 km/h 78 % 0 mm 137 W/m2
17:54 12.5 °C 8.8 °C 992.4 hPa WNW 37 km/h 61.2 km/h 78 % 0 mm 132 W/m2
17:59 12.5 °C 8.6 °C 992.4 hPa WNW 37 km/h 61.2 km/h 77 % 0 mm 134 W/m2
18:01 12.5 °C 8.4 °C 992.4 hPa WNW 35.4 km/h 61.2 km/h 76 % 0 mm 132 W/m2
18:06 12.5 °C 8.6 °C 992.4 hPa WNW 33.8 km/h 59.5 km/h 77 % 0 mm 128 W/m2
18:11 12.5 °C 8.4 °C 992.8 hPa WNW 32.2 km/h 57.9 km/h 76 % 0 mm 125 W/m2
18:16 12.6 °C 8.5 °C 992.8 hPa WNW 35.4 km/h 62.8 km/h 76 % 0 mm 120 W/m2
18:21 12.6 °C 8.7 °C 992.8 hPa WNW 35.4 km/h 62.8 km/h 77 % 0 mm 121 W/m2
18:26 12.5 °C 8.4 °C 992.8 hPa West 33.8 km/h 54.7 km/h 76 % 0 mm 134 W/m2
18:31 12.5 °C 8.4 °C 992.8 hPa WNW 30.6 km/h 56.3 km/h 76 % 0 mm 148 W/m2
18:36 12.5 °C 8.6 °C 993.1 hPa WNW 33.8 km/h 61.2 km/h 77 % 0 mm 144 W/m2
18:41 12.5 °C 8.6 °C 993.1 hPa WNW 32.2 km/h 61.2 km/h 77 % 0 mm 109 W/m2
18:46 12.5 °C 8.8 °C 993.1 hPa WNW 30.6 km/h 59.5 km/h 78 % 0 mm 104 W/m2
18:51 12.5 °C 8.8 °C 993.1 hPa West 30.6 km/h 59.5 km/h 78 % 0 mm 109 W/m2
18:56 12.5 °C 8.8 °C 993.1 hPa West 30.6 km/h 51.5 km/h 78 % 0 mm 79 W/m2
19:01 12.4 °C 8.8 °C 993.1 hPa West 30.6 km/h 53.1 km/h 79 % 0 mm 100 W/m2
19:06 12.5 °C 8.9 °C 993.5 hPa WNW 29 km/h 56.3 km/h 79 % 0 mm 102 W/m2
19:11 12.6 °C 9.1 °C 993.1 hPa West 29 km/h 56.3 km/h 79 % 0 mm 113 W/m2
19:16 12.6 °C 9.1 °C 993.5 hPa West 29 km/h 48.3 km/h 79 % 0 mm 102 W/m2
19:21 12.5 °C 8.9 °C 993.5 hPa West 27.4 km/h 49.9 km/h 79 % 0 mm 74 W/m2
19:27 12.4 °C 8.8 °C 993.5 hPa West 30.6 km/h 53.1 km/h 79 % 0 mm 95 W/m2
19:32 12.2 °C 9.1 °C 993.5 hPa West 32.2 km/h 54.7 km/h 81 % 0 mm 65 W/m2
19:37 12.1 °C 9.1 °C 993.5 hPa West 29 km/h 54.7 km/h 82 % 0 mm 90 W/m2
19:42 11.9 °C 8.9 °C 993.5 hPa West 27.4 km/h 48.3 km/h 82 % 0 mm 93 W/m2
19:47 11.9 °C 8.9 °C 993.5 hPa West 27.4 km/h 53.1 km/h 82 % 0 mm 84 W/m2
19:52 12 °C 8.8 °C 993.8 hPa West 27.4 km/h 53.1 km/h 81 % 0 mm 77 W/m2
19:57 12.1 °C 8.8 °C 993.8 hPa West 30.6 km/h 49.9 km/h 80 % 0 mm 70 W/m2
20:02 12.1 °C 8.8 °C 993.8 hPa West 30.6 km/h 49.9 km/h 80 % 0 mm 63 W/m2
20:07 12.2 °C 8.8 °C 993.8 hPa West 27.4 km/h 53.1 km/h 80 % 0 mm 35 W/m2
20:12 12.1 °C 8.9 °C 994.1 hPa West 27.4 km/h 54.7 km/h 81 % 0 mm 25 W/m2
20:17 12 °C 8.8 °C 993.8 hPa West 27.4 km/h 54.7 km/h 81 % 0 mm 23 W/m2
20:22 11.9 °C 8.9 °C 993.8 hPa West 27.4 km/h 46.7 km/h 82 % 0 mm 23 W/m2
20:27 11.9 °C 8.7 °C 994.1 hPa West 27.4 km/h 51.5 km/h 81 % 0 mm 21 W/m2
20:32 11.9 °C 8.7 °C 994.1 hPa West 29 km/h 56.3 km/h 81 % 0 mm 30 W/m2
20:37 12 °C 8.8 °C 994.1 hPa West 25.7 km/h 56.3 km/h 81 % 0 mm 30 W/m2
20:42 12 °C 8.8 °C 994.1 hPa West 27.4 km/h 49.9 km/h 81 % 0 mm 25 W/m2
20:47 12 °C 8.7 °C 994.1 hPa West 30.6 km/h 49.9 km/h 80 % 0 mm 23 W/m2
20:52 11.9 °C 8.7 °C 994.5 hPa West 29 km/h 49.9 km/h 81 % 0 mm 18 W/m2
20:57 11.9 °C 8.7 °C 994.5 hPa West 27.4 km/h 48.3 km/h 81 % 0 mm 12 W/m2
21:02 11.8 °C 8.8 °C 994.5 hPa West 25.7 km/h 43.5 km/h 82 % 0 mm 7 W/m2
21:07 11.8 °C 9 °C 994.5 hPa West 25.7 km/h 45.1 km/h 83 % 0 mm 0 W/m2
21:12 11.7 °C 9.1 °C 994.5 hPa West 27.4 km/h 45.1 km/h 84 % 0 mm 7 W/m2
21:14 11.7 °C 9.1 °C 994.8 hPa West 27.4 km/h 48.3 km/h 84 % 0 mm 7 W/m2
21:18 11.6 °C 9 °C 994.8 hPa West 29 km/h 48.3 km/h 84 % 0 mm 0 W/m2
21:24 11.6 °C 8.8 °C 994.8 hPa West 30.6 km/h 54.7 km/h 83 % 0 mm 0 W/m2
21:29 11.6 °C 8.6 °C 994.8 hPa West 29 km/h 54.7 km/h 82 % 0 mm 0 W/m2
21:34 11.6 °C 8.6 °C 994.8 hPa WNW 27.4 km/h 49.9 km/h 82 % 0 mm 0 W/m2
21:39 11.7 °C 8.6 °C 994.8 hPa WNW 27.4 km/h 46.7 km/h 81 % 0 mm 0 W/m2
21:44 11.7 °C 8.6 °C 994.8 hPa West 29 km/h 46.7 km/h 81 % 0 mm 0 W/m2
21:49 11.7 °C 8.6 °C 994.8 hPa West 29 km/h 46.7 km/h 81 % 0 mm 0 W/m2
21:54 11.8 °C 8.7 °C 995.1 hPa West 30.6 km/h 59.5 km/h 81 % 0 mm 0 W/m2
21:59 11.8 °C 8.4 °C 995.1 hPa West 32.2 km/h 59.5 km/h 80 % 0 mm 0 W/m2
22:04 11.8 °C 8.4 °C 995.1 hPa West 30.6 km/h 48.3 km/h 80 % 0 mm 0 W/m2
22:09 11.8 °C 8.3 °C 995.1 hPa West 32.2 km/h 51.5 km/h 79 % 0 mm 0 W/m2
22:14 11.8 °C 8.3 °C 995.1 hPa West 30.6 km/h 51.5 km/h 79 % 0 mm 0 W/m2
22:19 11.8 °C 8.3 °C 995.1 hPa West 30.6 km/h 49.9 km/h 79 % 0 mm 0 W/m2
22:24 11.8 °C 8.3 °C 995.5 hPa West 29 km/h 49.9 km/h 79 % 0 mm 0 W/m2
22:29 11.8 °C 8.4 °C 995.5 hPa West 29 km/h 49.9 km/h 80 % 0 mm 0 W/m2
22:34 11.8 °C 8.4 °C 995.5 hPa West 29 km/h 49.9 km/h 80 % 0 mm 0 W/m2
22:39 11.8 °C 8.7 °C 995.5 hPa West 27.4 km/h 51.5 km/h 81 % 0 mm 0 W/m2
22:44 11.7 °C 8.7 °C 995.8 hPa West 30.6 km/h 51.5 km/h 82 % 0 mm 0 W/m2
22:49 11.6 °C 8.8 °C 995.8 hPa West 30.6 km/h 49.9 km/h 83 % 0 mm 0 W/m2
22:54 11.5 °C 8.7 °C 995.8 hPa West 25.7 km/h 48.3 km/h 83 % 0 mm 0 W/m2
22:59 11.4 °C 8.6 °C 995.8 hPa West 22.5 km/h 45.1 km/h 83 % 0 mm 0 W/m2
23:04 11.4 °C 8.6 °C 995.8 hPa West 25.7 km/h 53.1 km/h 83 % 0 mm 0 W/m2
23:09 11.4 °C 8.8 °C 995.8 hPa West 27.4 km/h 53.1 km/h 84 % 0 mm 0 W/m2
23:14 11.3 °C 8.7 °C 996.2 hPa West 27.4 km/h 48.3 km/h 84 % 0 mm 0 W/m2
23:19 11.3 °C 8.7 °C 995.8 hPa West 27.4 km/h 45.1 km/h 84 % 0 mm 0 W/m2
23:25 11.3 °C 8.7 °C 995.8 hPa West 27.4 km/h 45.1 km/h 84 % 0 mm 0 W/m2
23:30 11.2 °C 8.6 °C 996.2 hPa West 27.4 km/h 45.1 km/h 84 % 0 mm 0 W/m2
23:35 11.2 °C 8.8 °C 996.2 hPa West 27.4 km/h 46.7 km/h 85 % 0 mm 0 W/m2
23:40 11.2 °C 8.8 °C 996.2 hPa West 25.7 km/h 49.9 km/h 85 % 0 mm 0 W/m2
23:45 11.2 °C 8.6 °C 996.2 hPa West 29 km/h 49.9 km/h 84 % 0 mm 0 W/m2
23:50 11.3 °C 8.7 °C 996.2 hPa West 27.4 km/h 49.9 km/h 84 % 0 mm 0 W/m2
23:55 11.3 °C 8.9 °C 996.2 hPa West 25.7 km/h 41.8 km/h 85 % 0 mm 0 W/m2
Delerius-Weather
Compliments of Weather Underground - 2.25 mb

Data updates at regular intervals.